Bambui, Brazil
Current Conditions -  °F | °C
As of 2:00 AM on Tuesday 23 Dec 2014 (Local Time) from SBUR Reporting Station
Light Rain Light Rain  
Wind Chill: 68°   Ceiling: 300
Heat Index: 68°   Visibility: 1.5mi
Dew Point: 68°   Wind: 3mph
Humidity: 100%   Direction: 290°WNW
Pressure: 30"   Gusts: NA
Location:  20.01°S, 45.98°W
Report Text: SBUR 230400Z 29003KT 2500 -RA BKN003 OVC100 20/20 Q1016
Loading
Personal Weather Stations






























Interactive Weather Map New forecast layout! Learn more

10-Day Weather Forecast

Advertisements
Track Severe Weather on mobile